sensor_id;sensor_type;location;lat;lon;timestamp;P1;durP1;ratioP1;P2;durP2;ratioP2
42118;SDS011;27783;42.782;23.274;2024-01-15T00:01:57;116.43;;;52.83;;
42118;SDS011;27783;42.782;23.274;2024-01-15T00:04:23;126.72;;;54.70;;
42118;SDS011;27783;42.782;23.274;2024-01-15T00:06:56;142.27;;;59.17;;
42118;SDS011;27783;42.782;23.274;2024-01-15T00:09:23;153.85;;;63.65;;
42118;SDS011;27783;42.782;23.274;2024-01-15T00:11:48;150.65;;;60.75;;
42118;SDS011;27783;42.782;23.274;2024-01-15T00:14:15;150.27;;;63.42;;
42118;SDS011;27783;42.782;23.274;2024-01-15T00:16:45;199.35;;;73.80;;
42118;SDS011;27783;42.782;23.274;2024-01-15T00:19:12;193.57;;;77.32;;
42118;SDS011;27783;42.782;23.274;2024-01-15T00:21:38;191.70;;;69.55;;
42118;SDS011;27783;42.782;23.274;2024-01-15T00:24:03;182.20;;;79.00;;
42118;SDS011;27783;42.782;23.274;2024-01-15T00:26:29;168.60;;;70.53;;
42118;SDS011;27783;42.782;23.274;2024-01-15T00:28:54;195.10;;;76.63;;
42118;SDS011;27783;42.782;23.274;2024-01-15T00:31:22;181.98;;;72.22;;
42118;SDS011;27783;42.782;23.274;2024-01-15T00:33:48;173.35;;;71.00;;
42118;SDS011;27783;42.782;23.274;2024-01-15T00:36:15;183.30;;;72.80;;
42118;SDS011;27783;42.782;23.274;2024-01-15T00:41:42;166.65;;;70.47;;
42118;SDS011;27783;42.782;23.274;2024-01-15T00:46:56;184.80;;;67.63;;
42118;SDS011;27783;42.782;23.274;2024-01-15T00:49:22;248.07;;;98.45;;
42118;SDS011;27783;42.782;23.274;2024-01-15T00:51:49;201.23;;;79.97;;
42118;SDS011;27783;42.782;23.274;2024-01-15T00:54:15;326.90;;;116.30;;
42118;SDS011;27783;42.782;23.274;2024-01-15T00:56:40;178.02;;;72.97;;
42118;SDS011;27783;42.782;23.274;2024-01-15T00:59:05;204.93;;;86.43;;
42118;SDS011;27783;42.782;23.274;2024-01-15T01:01:33;169.07;;;79.47;;
42118;SDS011;27783;42.782;23.274;2024-01-15T01:03:58;206.35;;;91.28;;
42118;SDS011;27783;42.782;23.274;2024-01-15T01:06:28;209.38;;;99.90;;
42118;SDS011;27783;42.782;23.274;2024-01-15T01:08:58;216.45;;;102.35;;
42118;SDS011;27783;42.782;23.274;2024-01-15T01:11:24;180.68;;;81.22;;
42118;SDS011;27783;42.782;23.274;2024-01-15T01:13:49;157.47;;;65.70;;
42118;SDS011;27783;42.782;23.274;2024-01-15T01:16:18;153.82;;;64.88;;
42118;SDS011;27783;42.782;23.274;2024-01-15T01:18:44;149.65;;;62.20;;
42118;SDS011;27783;42.782;23.274;2024-01-15T01:21:12;151.25;;;63.28;;
42118;SDS011;27783;42.782;23.274;2024-01-15T01:23:39;151.63;;;65.88;;
42118;SDS011;27783;42.782;23.274;2024-01-15T01:26:07;162.85;;;66.72;;
42118;SDS011;27783;42.782;23.274;2024-01-15T01:28:35;175.70;;;71.07;;
42118;SDS011;27783;42.782;23.274;2024-01-15T01:31:01;172.50;;;67.50;;
42118;SDS011;27783;42.782;23.274;2024-01-15T01:33:29;145.57;;;67.13;;
42118;SDS011;27783;42.782;23.274;2024-01-15T01:35:55;152.93;;;69.57;;
42118;SDS011;27783;42.782;23.274;2024-01-15T01:38:23;157.00;;;66.07;;
42118;SDS011;27783;42.782;23.274;2024-01-15T01:40:52;144.63;;;58.42;;
42118;SDS011;27783;42.782;23.274;2024-01-15T01:43:17;138.18;;;55.00;;
42118;SDS011;27783;42.782;23.274;2024-01-15T01:45:43;129.03;;;51.07;;
42118;SDS011;27783;42.782;23.274;2024-01-15T01:48:24;127.20;;;50.20;;
42118;SDS011;27783;42.782;23.274;2024-01-15T01:50:59;130.82;;;55.88;;
42118;SDS011;27783;42.782;23.274;2024-01-15T01:56:09;131.50;;;54.93;;
42118;SDS011;27783;42.782;23.274;2024-01-15T01:58:35;141.80;;;58.95;;
42118;SDS011;27783;42.782;23.274;2024-01-15T02:03:31;137.05;;;54.42;;
42118;SDS011;27783;42.782;23.274;2024-01-15T02:05:59;139.00;;;60.08;;
42118;SDS011;27783;42.782;23.274;2024-01-15T02:08:26;157.05;;;65.57;;
42118;SDS011;27783;42.782;23.274;2024-01-15T02:10:52;152.38;;;58.75;;
42118;SDS011;27783;42.782;23.274;2024-01-15T02:13:23;151.30;;;68.13;;
42118;SDS011;27783;42.782;23.274;2024-01-15T02:15:50;161.27;;;65.32;;
42118;SDS011;27783;42.782;23.274;2024-01-15T02:18:16;194.05;;;80.60;;
42118;SDS011;27783;42.782;23.274;2024-01-15T02:20:49;160.48;;;67.38;;
42118;SDS011;27783;42.782;23.274;2024-01-15T02:23:15;200.00;;;89.30;;
42118;SDS011;27783;42.782;23.274;2024-01-15T02:25:46;217.68;;;104.93;;
42118;SDS011;27783;42.782;23.274;2024-01-15T02:28:16;184.45;;;83.70;;
42118;SDS011;27783;42.782;23.274;2024-01-15T02:30:42;173.68;;;73.95;;
42118;SDS011;27783;42.782;23.274;2024-01-15T02:33:10;170.73;;;71.65;;
42118;SDS011;27783;42.782;23.274;2024-01-15T02:35:43;170.05;;;66.93;;
42118;SDS011;27783;42.782;23.274;2024-01-15T02:38:11;178.73;;;69.28;;
42118;SDS011;27783;42.782;23.274;2024-01-15T02:40:37;170.23;;;73.20;;
42118;SDS011;27783;42.782;23.274;2024-01-15T02:43:03;177.07;;;81.63;;
42118;SDS011;27783;42.782;23.274;2024-01-15T02:45:30;142.95;;;64.70;;
42118;SDS011;27783;42.782;23.274;2024-01-15T02:47:55;157.43;;;58.17;;
42118;SDS011;27783;42.782;23.274;2024-01-15T02:50:21;139.30;;;59.17;;
42118;SDS011;27783;42.782;23.274;2024-01-15T02:52:47;143.60;;;54.03;;
42118;SDS011;27783;42.782;23.274;2024-01-15T02:55:15;140.30;;;57.70;;
42118;SDS011;27783;42.782;23.274;2024-01-15T03:00:17;161.32;;;60.50;;
42118;SDS011;27783;42.782;23.274;2024-01-15T03:02:44;146.40;;;56.17;;
42118;SDS011;27783;42.782;23.274;2024-01-15T03:05:10;146.13;;;59.97;;
42118;SDS011;27783;42.782;23.274;2024-01-15T03:07:37;130.77;;;53.35;;
42118;SDS011;27783;42.782;23.274;2024-01-15T03:10:16;142.57;;;57.97;;
42118;SDS011;27783;42.782;23.274;2024-01-15T03:12:44;155.05;;;67.47;;
42118;SDS011;27783;42.782;23.274;2024-01-15T03:15:09;147.32;;;61.03;;
42118;SDS011;27783;42.782;23.274;2024-01-15T03:17:36;142.43;;;65.30;;
42118;SDS011;27783;42.782;23.274;2024-01-15T03:20:01;157.93;;;62.73;;
42118;SDS011;27783;42.782;23.274;2024-01-15T03:22:29;142.77;;;60.63;;
42118;SDS011;27783;42.782;23.274;2024-01-15T03:25:00;161.32;;;59.83;;
42118;SDS011;27783;42.782;23.274;2024-01-15T03:27:25;128.05;;;56.38;;
42118;SDS011;27783;42.782;23.274;2024-01-15T03:29:52;171.50;;;69.00;;
42118;SDS011;27783;42.782;23.274;2024-01-15T03:32:17;168.07;;;67.70;;
42118;SDS011;27783;42.782;23.274;2024-01-15T03:34:43;114.50;;;49.63;;
42118;SDS011;27783;42.782;23.274;2024-01-15T03:37:10;145.20;;;59.55;;
42118;SDS011;27783;42.782;23.274;2024-01-15T03:42:22;165.77;;;64.65;;
42118;SDS011;27783;42.782;23.274;2024-01-15T03:44:51;138.18;;;58.92;;
42118;SDS011;27783;42.782;23.274;2024-01-15T03:47:19;144.27;;;60.13;;
42118;SDS011;27783;42.782;23.274;2024-01-15T03:49:46;151.10;;;61.40;;
42118;SDS011;27783;42.782;23.274;2024-01-15T03:52:11;174.23;;;76.90;;
42118;SDS011;27783;42.782;23.274;2024-01-15T03:54:38;146.70;;;64.15;;
42118;SDS011;27783;42.782;23.274;2024-01-15T03:57:05;148.68;;;61.08;;
42118;SDS011;27783;42.782;23.274;2024-01-15T03:59:36;163.57;;;70.03;;
42118;SDS011;27783;42.782;23.274;2024-01-15T04:02:02;149.93;;;59.80;;
42118;SDS011;27783;42.782;23.274;2024-01-15T04:04:30;158.63;;;62.30;;
42118;SDS011;27783;42.782;23.274;2024-01-15T04:06:56;158.57;;;62.05;;
42118;SDS011;27783;42.782;23.274;2024-01-15T04:09:22;148.07;;;65.70;;
42118;SDS011;27783;42.782;23.274;2024-01-15T04:11:55;141.88;;;63.80;;
42118;SDS011;27783;42.782;23.274;2024-01-15T04:14:23;156.63;;;70.57;;
42118;SDS011;27783;42.782;23.274;2024-01-15T04:16:55;151.85;;;67.93;;
42118;SDS011;27783;42.782;23.274;2024-01-15T04:19:21;152.30;;;63.67;;
42118;SDS011;27783;42.782;23.274;2024-01-15T04:21:47;159.10;;;68.53;;
42118;SDS011;27783;42.782;23.274;2024-01-15T04:24:13;171.27;;;73.85;;
42118;SDS011;27783;42.782;23.274;2024-01-15T04:26:45;162.75;;;70.95;;
42118;SDS011;27783;42.782;23.274;2024-01-15T04:29:14;158.88;;;67.72;;
42118;SDS011;27783;42.782;23.274;2024-01-15T04:31:39;162.60;;;66.55;;
42118;SDS011;27783;42.782;23.274;2024-01-15T04:34:07;138.45;;;59.00;;
42118;SDS011;27783;42.782;23.274;2024-01-15T04:36:43;144.40;;;62.88;;
42118;SDS011;27783;42.782;23.274;2024-01-15T04:39:09;156.30;;;73.90;;
42118;SDS011;27783;42.782;23.274;2024-01-15T04:41:37;141.10;;;62.63;;
42118;SDS011;27783;42.782;23.274;2024-01-15T04:44:05;136.50;;;56.60;;
42118;SDS011;27783;42.782;23.274;2024-01-15T04:46:31;119.88;;;53.28;;
42118;SDS011;27783;42.782;23.274;2024-01-15T04:48:57;130.68;;;57.80;;
42118;SDS011;27783;42.782;23.274;2024-01-15T04:51:23;141.50;;;63.05;;
42118;SDS011;27783;42.782;23.274;2024-01-15T04:53:49;153.63;;;65.68;;
42118;SDS011;27783;42.782;23.274;2024-01-15T04:56:15;597.30;;;296.45;;
42118;SDS011;27783;42.782;23.274;2024-01-15T04:58:47;162.93;;;71.05;;
42118;SDS011;27783;42.782;23.274;2024-01-15T05:01:15;160.10;;;71.90;;
42118;SDS011;27783;42.782;23.274;2024-01-15T05:06:11;153.85;;;71.32;;
42118;SDS011;27783;42.782;23.274;2024-01-15T05:08:38;162.55;;;68.47;;
42118;SDS011;27783;42.782;23.274;2024-01-15T05:11:08;134.20;;;61.17;;
42118;SDS011;27783;42.782;23.274;2024-01-15T05:13:39;130.80;;;55.53;;
42118;SDS011;27783;42.782;23.274;2024-01-15T05:16:05;129.18;;;55.55;;
42118;SDS011;27783;42.782;23.274;2024-01-15T05:18:32;131.43;;;56.83;;
42118;SDS011;27783;42.782;23.274;2024-01-15T05:20:57;143.95;;;65.05;;
42118;SDS011;27783;42.782;23.274;2024-01-15T05:23:23;160.65;;;71.95;;
42118;SDS011;27783;42.782;23.274;2024-01-15T05:25:53;140.82;;;64.40;;
42118;SDS011;27783;42.782;23.274;2024-01-15T05:28:21;164.18;;;72.18;;
42118;SDS011;27783;42.782;23.274;2024-01-15T05:30:46;158.57;;;71.75;;
42118;SDS011;27783;42.782;23.274;2024-01-15T05:33:14;146.50;;;70.03;;
42118;SDS011;27783;42.782;23.274;2024-01-15T05:35:42;128.18;;;60.30;;
42118;SDS011;27783;42.782;23.274;2024-01-15T05:38:08;131.98;;;61.00;;
42118;SDS011;27783;42.782;23.274;2024-01-15T05:40:34;132.82;;;57.40;;
42118;SDS011;27783;42.782;23.274;2024-01-15T05:45:26;115.23;;;55.17;;
42118;SDS011;27783;42.782;23.274;2024-01-15T05:47:58;111.57;;;52.40;;
42118;SDS011;27783;42.782;23.274;2024-01-15T05:50:25;105.80;;;47.25;;
42118;SDS011;27783;42.782;23.274;2024-01-15T05:52:51;121.25;;;53.47;;
42118;SDS011;27783;42.782;23.274;2024-01-15T05:55:17;121.85;;;52.38;;
42118;SDS011;27783;42.782;23.274;2024-01-15T05:57:43;122.38;;;52.03;;
42118;SDS011;27783;42.782;23.274;2024-01-15T06:00:11;150.48;;;67.75;;
42118;SDS011;27783;42.782;23.274;2024-01-15T06:02:37;139.65;;;58.75;;
42118;SDS011;27783;42.782;23.274;2024-01-15T06:05:03;157.23;;;69.78;;
42118;SDS011;27783;42.782;23.274;2024-01-15T06:07:29;142.10;;;64.65;;
42118;SDS011;27783;42.782;23.274;2024-01-15T06:09:54;134.00;;;60.17;;
42118;SDS011;27783;42.782;23.274;2024-01-15T06:12:22;121.47;;;53.17;;
42118;SDS011;27783;42.782;23.274;2024-01-15T06:14:47;111.82;;;53.47;;
42118;SDS011;27783;42.782;23.274;2024-01-15T06:17:13;125.85;;;58.13;;
42118;SDS011;27783;42.782;23.274;2024-01-15T06:19:38;120.65;;;54.33;;
42118;SDS011;27783;42.782;23.274;2024-01-15T06:22:04;131.50;;;60.17;;
42118;SDS011;27783;42.782;23.274;2024-01-15T06:24:30;169.30;;;74.00;;
42118;SDS011;27783;42.782;23.274;2024-01-15T06:26:55;151.93;;;71.28;;
42118;SDS011;27783;42.782;23.274;2024-01-15T06:29:20;141.18;;;63.95;;
42118;SDS011;27783;42.782;23.274;2024-01-15T06:31:46;138.50;;;61.58;;
42118;SDS011;27783;42.782;23.274;2024-01-15T06:34:11;125.15;;;57.42;;
42118;SDS011;27783;42.782;23.274;2024-01-15T06:36:37;139.85;;;64.25;;
42118;SDS011;27783;42.782;23.274;2024-01-15T06:39:02;146.70;;;64.43;;
42118;SDS011;27783;42.782;23.274;2024-01-15T06:41:28;146.32;;;66.40;;
42118;SDS011;27783;42.782;23.274;2024-01-15T06:43:53;145.50;;;62.15;;
42118;SDS011;27783;42.782;23.274;2024-01-15T06:46:19;150.70;;;69.85;;
42118;SDS011;27783;42.782;23.274;2024-01-15T06:48:48;148.43;;;65.00;;
42118;SDS011;27783;42.782;23.274;2024-01-15T06:51:15;145.70;;;62.93;;
42118;SDS011;27783;42.782;23.274;2024-01-15T06:53:41;146.93;;;63.22;;
42118;SDS011;27783;42.782;23.274;2024-01-15T06:56:06;143.68;;;59.75;;
42118;SDS011;27783;42.782;23.274;2024-01-15T06:58:32;131.75;;;59.53;;
42118;SDS011;27783;42.782;23.274;2024-01-15T07:00:57;134.13;;;61.20;;
42118;SDS011;27783;42.782;23.274;2024-01-15T07:03:23;132.07;;;59.15;;
42118;SDS011;27783;42.782;23.274;2024-01-15T07:05:48;131.52;;;57.25;;
42118;SDS011;27783;42.782;23.274;2024-01-15T07:08:14;112.15;;;51.17;;
42118;SDS011;27783;42.782;23.274;2024-01-15T07:10:39;99.60;;;45.33;;
42118;SDS011;27783;42.782;23.274;2024-01-15T07:13:05;102.45;;;45.63;;
42118;SDS011;27783;42.782;23.274;2024-01-15T07:15:30;105.47;;;47.83;;
42118;SDS011;27783;42.782;23.274;2024-01-15T07:17:56;103.53;;;46.08;;
42118;SDS011;27783;42.782;23.274;2024-01-15T07:20:21;104.07;;;45.17;;
42118;SDS011;27783;42.782;23.274;2024-01-15T07:22:47;91.78;;;40.38;;
42118;SDS011;27783;42.782;23.274;2024-01-15T07:25:12;97.75;;;44.30;;
42118;SDS011;27783;42.782;23.274;2024-01-15T07:27:38;97.65;;;44.47;;
42118;SDS011;27783;42.782;23.274;2024-01-15T07:30:03;101.88;;;44.15;;
42118;SDS011;27783;42.782;23.274;2024-01-15T07:32:31;104.65;;;47.00;;
42118;SDS011;27783;42.782;23.274;2024-01-15T07:34:56;119.00;;;53.17;;
42118;SDS011;27783;42.782;23.274;2024-01-15T07:37:23;103.47;;;47.80;;
42118;SDS011;27783;42.782;23.274;2024-01-15T07:39:49;113.60;;;52.03;;
42118;SDS011;27783;42.782;23.274;2024-01-15T07:42:14;98.57;;;47.47;;
42118;SDS011;27783;42.782;23.274;2024-01-15T07:44:40;109.30;;;53.78;;
42118;SDS011;27783;42.782;23.274;2024-01-15T07:47:05;109.25;;;50.08;;
42118;SDS011;27783;42.782;23.274;2024-01-15T07:49:30;109.10;;;54.05;;
42118;SDS011;27783;42.782;23.274;2024-01-15T07:51:56;120.72;;;60.25;;
42118;SDS011;27783;42.782;23.274;2024-01-15T07:54:21;116.18;;;57.88;;
42118;SDS011;27783;42.782;23.274;2024-01-15T07:56:55;114.80;;;54.80;;
42118;SDS011;27783;42.782;23.274;2024-01-15T07:59:28;115.10;;;56.28;;
42118;SDS011;27783;42.782;23.274;2024-01-15T08:01:53;110.90;;;57.08;;
42118;SDS011;27783;42.782;23.274;2024-01-15T08:04:20;123.55;;;56.67;;
42118;SDS011;27783;42.782;23.274;2024-01-15T08:06:47;126.15;;;60.15;;
42118;SDS011;27783;42.782;23.274;2024-01-15T08:09:12;122.95;;;56.90;;
42118;SDS011;27783;42.782;23.274;2024-01-15T08:11:41;119.45;;;57.40;;
42118;SDS011;27783;42.782;23.274;2024-01-15T08:14:07;121.18;;;58.58;;
42118;SDS011;27783;42.782;23.274;2024-01-15T08:16:35;127.85;;;60.80;;
42118;SDS011;27783;42.782;23.274;2024-01-15T08:21:28;124.90;;;60.17;;
42118;SDS011;27783;42.782;23.274;2024-01-15T08:23:56;120.93;;;58.95;;
42118;SDS011;27783;42.782;23.274;2024-01-15T08:26:21;121.55;;;58.08;;
42118;SDS011;27783;42.782;23.274;2024-01-15T08:28:47;134.82;;;61.15;;
42118;SDS011;27783;42.782;23.274;2024-01-15T08:31:13;125.20;;;60.85;;
42118;SDS011;27783;42.782;23.274;2024-01-15T08:33:38;115.35;;;58.55;;
42118;SDS011;27783;42.782;23.274;2024-01-15T08:36:04;128.15;;;65.78;;
42118;SDS011;27783;42.782;23.274;2024-01-15T08:38:30;126.40;;;62.13;;
42118;SDS011;27783;42.782;23.274;2024-01-15T08:40:56;127.93;;;62.53;;
42118;SDS011;27783;42.782;23.274;2024-01-15T08:43:23;117.88;;;62.88;;
42118;SDS011;27783;42.782;23.274;2024-01-15T08:45:49;127.47;;;66.22;;
42118;SDS011;27783;42.782;23.274;2024-01-15T08:48:16;133.73;;;67.43;;
42118;SDS011;27783;42.782;23.274;2024-01-15T08:50:41;120.72;;;57.80;;
42118;SDS011;27783;42.782;23.274;2024-01-15T08:53:07;120.57;;;61.13;;
42118;SDS011;27783;42.782;23.274;2024-01-15T08:55:32;78.90;;;43.15;;
42118;SDS011;27783;42.782;23.274;2024-01-15T08:57:58;86.25;;;42.80;;
42118;SDS011;27783;42.782;23.274;2024-01-15T09:00:23;87.55;;;41.60;;
42118;SDS011;27783;42.782;23.274;2024-01-15T09:02:49;77.95;;;41.28;;
42118;SDS011;27783;42.782;23.274;2024-01-15T09:05:14;82.57;;;42.17;;
42118;SDS011;27783;42.782;23.274;2024-01-15T09:07:40;85.65;;;43.38;;
42118;SDS011;27783;42.782;23.274;2024-01-15T09:10:06;74.15;;;37.47;;
42118;SDS011;27783;42.782;23.274;2024-01-15T09:12:34;70.68;;;34.75;;
42118;SDS011;27783;42.782;23.274;2024-01-15T09:15:00;77.22;;;39.83;;
42118;SDS011;27783;42.782;23.274;2024-01-15T09:17:29;76.38;;;40.70;;
42118;SDS011;27783;42.782;23.274;2024-01-15T09:19:58;94.22;;;52.92;;
42118;SDS011;27783;42.782;23.274;2024-01-15T09:22:23;112.15;;;59.45;;
42118;SDS011;27783;42.782;23.274;2024-01-15T09:24:49;159.25;;;84.80;;
42118;SDS011;27783;42.782;23.274;2024-01-15T09:27:14;156.55;;;81.75;;
42118;SDS011;27783;42.782;23.274;2024-01-15T09:29:40;143.23;;;79.47;;
42118;SDS011;27783;42.782;23.274;2024-01-15T09:32:07;129.57;;;71.85;;
42118;SDS011;27783;42.782;23.274;2024-01-15T09:34:34;133.23;;;73.85;;
42118;SDS011;27783;42.782;23.274;2024-01-15T09:37:00;123.72;;;70.05;;
42118;SDS011;27783;42.782;23.274;2024-01-15T09:39:26;145.75;;;78.03;;
42118;SDS011;27783;42.782;23.274;2024-01-15T09:41:52;111.47;;;63.83;;
42118;SDS011;27783;42.782;23.274;2024-01-15T09:44:19;122.63;;;70.70;;
42118;SDS011;27783;42.782;23.274;2024-01-15T09:46:46;89.90;;;50.72;;
42118;SDS011;27783;42.782;23.274;2024-01-15T09:49:15;108.03;;;65.43;;
42118;SDS011;27783;42.782;23.274;2024-01-15T09:51:41;134.65;;;77.20;;
42118;SDS011;27783;42.782;23.274;2024-01-15T09:54:07;99.82;;;62.58;;
42118;SDS011;27783;42.782;23.274;2024-01-15T09:56:33;88.40;;;53.45;;
42118;SDS011;27783;42.782;23.274;2024-01-15T09:59:00;114.45;;;66.60;;
42118;SDS011;27783;42.782;23.274;2024-01-15T10:01:25;78.95;;;47.40;;
42118;SDS011;27783;42.782;23.274;2024-01-15T10:03:51;90.10;;;55.70;;
42118;SDS011;27783;42.782;23.274;2024-01-15T10:06:18;108.00;;;72.45;;
42118;SDS011;27783;42.782;23.274;2024-01-15T10:08:47;70.07;;;47.97;;
42118;SDS011;27783;42.782;23.274;2024-01-15T10:11:14;63.15;;;43.72;;
42118;SDS011;27783;42.782;23.274;2024-01-15T10:13:39;58.13;;;37.10;;
42118;SDS011;27783;42.782;23.274;2024-01-15T10:16:05;56.58;;;37.30;;
42118;SDS011;27783;42.782;23.274;2024-01-15T10:18:31;75.18;;;48.67;;
42118;SDS011;27783;42.782;23.274;2024-01-15T10:20:56;64.07;;;39.55;;
42118;SDS011;27783;42.782;23.274;2024-01-15T10:23:25;59.97;;;38.72;;
42118;SDS011;27783;42.782;23.274;2024-01-15T10:25:50;43.10;;;29.33;;
42118;SDS011;27783;42.782;23.274;2024-01-15T10:28:18;35.80;;;25.02;;
42118;SDS011;27783;42.782;23.274;2024-01-15T10:30:44;51.90;;;31.23;;
42118;SDS011;27783;42.782;23.274;2024-01-15T10:33:10;44.70;;;29.67;;
42118;SDS011;27783;42.782;23.274;2024-01-15T10:35:37;45.75;;;29.17;;
42118;SDS011;27783;42.782;23.274;2024-01-15T10:38:03;36.50;;;28.25;;
42118;SDS011;27783;42.782;23.274;2024-01-15T10:40:30;45.25;;;30.52;;
42118;SDS011;27783;42.782;23.274;2024-01-15T10:42:56;39.97;;;28.05;;
42118;SDS011;27783;42.782;23.274;2024-01-15T10:45:22;37.58;;;27.63;;
42118;SDS011;27783;42.782;23.274;2024-01-15T10:47:48;39.92;;;28.17;;
42118;SDS011;27783;42.782;23.274;2024-01-15T10:50:14;41.05;;;28.75;;
42118;SDS011;27783;42.782;23.274;2024-01-15T10:52:40;40.38;;;29.25;;
42118;SDS011;27783;42.782;23.274;2024-01-15T10:55:09;52.08;;;31.08;;
42118;SDS011;27783;42.782;23.274;2024-01-15T10:57:36;38.85;;;28.38;;
42118;SDS011;27783;42.782;23.274;2024-01-15T11:00:02;36.92;;;26.17;;
42118;SDS011;27783;42.782;23.274;2024-01-15T11:02:31;47.75;;;32.85;;
42118;SDS011;27783;42.782;23.274;2024-01-15T11:04:58;44.72;;;31.65;;
42118;SDS011;27783;42.782;23.274;2024-01-15T11:07:26;43.22;;;30.95;;
42118;SDS011;27783;42.782;23.274;2024-01-15T11:09:52;40.60;;;27.73;;
42118;SDS011;27783;42.782;23.274;2024-01-15T11:12:17;44.55;;;30.15;;
42118;SDS011;27783;42.782;23.274;2024-01-15T11:14:48;30.02;;;23.95;;
42118;SDS011;27783;42.782;23.274;2024-01-15T11:17:14;34.00;;;24.75;;
42118;SDS011;27783;42.782;23.274;2024-01-15T11:22:09;35.83;;;23.80;;
42118;SDS011;27783;42.782;23.274;2024-01-15T11:24:55;35.17;;;27.17;;
42118;SDS011;27783;42.782;23.274;2024-01-15T11:27:40;31.67;;;24.05;;
42118;SDS011;27783;42.782;23.274;2024-01-15T11:30:10;36.70;;;24.88;;
42118;SDS011;27783;42.782;23.274;2024-01-15T11:32:36;31.52;;;21.85;;
42118;SDS011;27783;42.782;23.274;2024-01-15T11:35:02;36.95;;;27.80;;
42118;SDS011;27783;42.782;23.274;2024-01-15T11:42:45;33.47;;;20.80;;
42118;SDS011;27783;42.782;23.274;2024-01-15T11:45:11;34.60;;;22.05;;
42118;SDS011;27783;42.782;23.274;2024-01-15T11:47:53;28.65;;;20.75;;
42118;SDS011;27783;42.782;23.274;2024-01-15T11:50:22;32.85;;;19.67;;
42118;SDS011;27783;42.782;23.274;2024-01-15T11:52:55;27.60;;;18.08;;
42118;SDS011;27783;42.782;23.274;2024-01-15T11:55:29;29.60;;;19.15;;
42118;SDS011;27783;42.782;23.274;2024-01-15T11:58:00;27.33;;;19.13;;
42118;SDS011;27783;42.782;23.274;2024-01-15T12:00:26;23.98;;;18.48;;
42118;SDS011;27783;42.782;23.274;2024-01-15T12:02:53;22.33;;;17.55;;
42118;SDS011;27783;42.782;23.274;2024-01-15T12:05:19;24.65;;;17.95;;
42118;SDS011;27783;42.782;23.274;2024-01-15T12:07:46;29.45;;;18.63;;
42118;SDS011;27783;42.782;23.274;2024-01-15T12:10:13;30.17;;;18.13;;
42118;SDS011;27783;42.782;23.274;2024-01-15T12:15:25;28.55;;;17.60;;
42118;SDS011;27783;42.782;23.274;2024-01-15T12:17:52;32.25;;;18.00;;
42118;SDS011;27783;42.782;23.274;2024-01-15T12:20:19;31.88;;;17.50;;
42118;SDS011;27783;42.782;23.274;2024-01-15T12:22:45;28.75;;;18.60;;
42118;SDS011;27783;42.782;23.274;2024-01-15T12:25:11;31.48;;;19.00;;
42118;SDS011;27783;42.782;23.274;2024-01-15T12:27:37;35.10;;;20.27;;
42118;SDS011;27783;42.782;23.274;2024-01-15T12:30:03;39.63;;;22.58;;
42118;SDS011;27783;42.782;23.274;2024-01-15T12:34:55;31.30;;;19.53;;
42118;SDS011;27783;42.782;23.274;2024-01-15T12:37:21;32.03;;;21.85;;
42118;SDS011;27783;42.782;23.274;2024-01-15T12:39:49;79.18;;;36.97;;
42118;SDS011;27783;42.782;23.274;2024-01-15T12:42:15;59.95;;;31.48;;
42118;SDS011;27783;42.782;23.274;2024-01-15T12:44:42;55.10;;;28.02;;
42118;SDS011;27783;42.782;23.274;2024-01-15T12:47:09;89.75;;;42.17;;
42118;SDS011;27783;42.782;23.274;2024-01-15T12:49:39;86.68;;;44.20;;
42118;SDS011;27783;42.782;23.274;2024-01-15T12:52:07;79.00;;;42.25;;
42118;SDS011;27783;42.782;23.274;2024-01-15T12:54:34;40.38;;;23.98;;
42118;SDS011;27783;42.782;23.274;2024-01-15T12:57:00;30.13;;;18.83;;
42118;SDS011;27783;42.782;23.274;2024-01-15T12:59:25;36.13;;;19.42;;
42118;SDS011;27783;42.782;23.274;2024-01-15T13:01:50;57.55;;;29.50;;
42118;SDS011;27783;42.782;23.274;2024-01-15T13:04:22;44.17;;;23.92;;
42118;SDS011;27783;42.782;23.274;2024-01-15T13:06:48;41.65;;;22.70;;
42118;SDS011;27783;42.782;23.274;2024-01-15T13:09:14;47.70;;;25.15;;
42118;SDS011;27783;42.782;23.274;2024-01-15T13:11:42;50.70;;;26.13;;
42118;SDS011;27783;42.782;23.274;2024-01-15T13:14:08;50.78;;;28.60;;
42118;SDS011;27783;42.782;23.274;2024-01-15T13:16:34;47.72;;;26.45;;
42118;SDS011;27783;42.782;23.274;2024-01-15T13:18:59;46.85;;;29.98;;
42118;SDS011;27783;42.782;23.274;2024-01-15T13:21:25;42.83;;;28.45;;
42118;SDS011;27783;42.782;23.274;2024-01-15T13:23:50;30.55;;;18.23;;
42118;SDS011;27783;42.782;23.274;2024-01-15T13:26:16;33.33;;;18.48;;
42118;SDS011;27783;42.782;23.274;2024-01-15T13:28:43;120.97;;;71.13;;
42118;SDS011;27783;42.782;23.274;2024-01-15T13:31:09;91.43;;;55.28;;
42118;SDS011;27783;42.782;23.274;2024-01-15T13:33:34;85.95;;;53.65;;
42118;SDS011;27783;42.782;23.274;2024-01-15T13:36:00;75.78;;;37.05;;
42118;SDS011;27783;42.782;23.274;2024-01-15T13:38:26;49.80;;;24.33;;
42118;SDS011;27783;42.782;23.274;2024-01-15T13:40:52;58.73;;;37.13;;
42118;SDS011;27783;42.782;23.274;2024-01-15T13:43:20;62.40;;;40.05;;
42118;SDS011;27783;42.782;23.274;2024-01-15T13:45:45;80.28;;;44.08;;
42118;SDS011;27783;42.782;23.274;2024-01-15T13:48:11;72.25;;;42.40;;
42118;SDS011;27783;42.782;23.274;2024-01-15T13:50:37;75.95;;;43.15;;
42118;SDS011;27783;42.782;23.274;2024-01-15T13:53:04;76.63;;;44.93;;
42118;SDS011;27783;42.782;23.274;2024-01-15T13:55:30;92.85;;;55.67;;
42118;SDS011;27783;42.782;23.274;2024-01-15T13:57:55;54.13;;;32.50;;
42118;SDS011;27783;42.782;23.274;2024-01-15T14:00:20;31.92;;;19.83;;
42118;SDS011;27783;42.782;23.274;2024-01-15T14:02:46;26.30;;;19.38;;
42118;SDS011;27783;42.782;23.274;2024-01-15T14:05:12;49.67;;;27.77;;
42118;SDS011;27783;42.782;23.274;2024-01-15T14:07:39;40.28;;;21.00;;
42118;SDS011;27783;42.782;23.274;2024-01-15T14:10:05;44.35;;;22.17;;
42118;SDS011;27783;42.782;23.274;2024-01-15T14:12:33;41.03;;;25.67;;
42118;SDS011;27783;42.782;23.274;2024-01-15T14:15:03;102.10;;;47.50;;
42118;SDS011;27783;42.782;23.274;2024-01-15T14:17:29;107.72;;;60.80;;
42118;SDS011;27783;42.782;23.274;2024-01-15T14:19:54;87.22;;;44.97;;
42118;SDS011;27783;42.782;23.274;2024-01-15T14:22:20;77.70;;;43.45;;
42118;SDS011;27783;42.782;23.274;2024-01-15T14:24:45;70.18;;;35.75;;
42118;SDS011;27783;42.782;23.274;2024-01-15T14:27:11;58.83;;;28.20;;
42118;SDS011;27783;42.782;23.274;2024-01-15T14:29:37;60.72;;;33.00;;
42118;SDS011;27783;42.782;23.274;2024-01-15T14:32:03;117.05;;;59.10;;
42118;SDS011;27783;42.782;23.274;2024-01-15T14:34:29;212.45;;;97.15;;
42118;SDS011;27783;42.782;23.274;2024-01-15T14:36:54;128.02;;;64.45;;